sensor_id;sensor_type;location;lat;lon;timestamp;temperature;humidity
1079;DHT22;528;47.872;11.478;2022-09-03T00:00:16;15.40;99.90
1079;DHT22;528;47.872;11.478;2022-09-03T00:02:52;15.40;99.90
1079;DHT22;528;47.872;11.478;2022-09-03T00:05:28;15.40;99.90
1079;DHT22;528;47.872;11.478;2022-09-03T00:08:05;15.40;99.90
1079;DHT22;528;47.872;11.478;2022-09-03T00:10:41;15.30;99.90
1079;DHT22;528;47.872;11.478;2022-09-03T00:13:13;15.30;99.90
1079;DHT22;528;47.872;11.478;2022-09-03T00:15:42;15.30;99.90
1079;DHT22;528;47.872;11.478;2022-09-03T00:18:14;15.30;99.90
1079;DHT22;528;47.872;11.478;2022-09-03T00:20:45;15.20;99.90
1079;DHT22;528;47.872;11.478;2022-09-03T00:23:21;15.30;99.90
1079;DHT22;528;47.872;11.478;2022-09-03T00:25:53;15.30;99.90
1079;DHT22;528;47.872;11.478;2022-09-03T00:28:24;15.20;99.90
1079;DHT22;528;47.872;11.478;2022-09-03T00:31:06;15.20;99.90
1079;DHT22;528;47.872;11.478;2022-09-03T00:33:39;15.10;99.90
1079;DHT22;528;47.872;11.478;2022-09-03T00:36:14;15.10;99.90
1079;DHT22;528;47.872;11.478;2022-09-03T00:38:44;15.20;99.90
1079;DHT22;528;47.872;11.478;2022-09-03T00:41:20;15.20;99.90
1079;DHT22;528;47.872;11.478;2022-09-03T00:44:03;15.10;99.90
1079;DHT22;528;47.872;11.478;2022-09-03T00:46:46;15.10;99.90
1079;DHT22;528;47.872;11.478;2022-09-03T00:49:35;15.10;99.90
1079;DHT22;528;47.872;11.478;2022-09-03T00:52:17;15.10;99.90
1079;DHT22;528;47.872;11.478;2022-09-03T00:54:53;15.10;99.90
1079;DHT22;528;47.872;11.478;2022-09-03T00:57:33;15.10;99.90
1079;DHT22;528;47.872;11.478;2022-09-03T01:00:05;15.10;99.90
1079;DHT22;528;47.872;11.478;2022-09-03T01:02:49;15.00;99.90
1079;DHT22;528;47.872;11.478;2022-09-03T01:05:26;15.10;99.90
1079;DHT22;528;47.872;11.478;2022-09-03T01:08:08;15.00;99.90
1079;DHT22;528;47.872;11.478;2022-09-03T01:10:48;15.00;99.90
1079;DHT22;528;47.872;11.478;2022-09-03T01:13:22;15.00;99.90
1079;DHT22;528;47.872;11.478;2022-09-03T01:16:01;15.00;99.90
1079;DHT22;528;47.872;11.478;2022-09-03T01:18:43;15.00;99.90
1079;DHT22;528;47.872;11.478;2022-09-03T01:21:33;15.00;99.90
1079;DHT22;528;47.872;11.478;2022-09-03T01:27:14;15.00;99.90
1079;DHT22;528;47.872;11.478;2022-09-03T01:29:49;15.00;99.90
1079;DHT22;528;47.872;11.478;2022-09-03T01:32:26;15.00;99.90
1079;DHT22;528;47.872;11.478;2022-09-03T01:35:03;15.00;99.90
1079;DHT22;528;47.872;11.478;2022-09-03T01:37:40;15.00;99.90
1079;DHT22;528;47.872;11.478;2022-09-03T01:40:18;15.10;99.90
1079;DHT22;528;47.872;11.478;2022-09-03T01:43:00;15.10;99.90
1079;DHT22;528;47.872;11.478;2022-09-03T01:45:39;15.10;99.90
1079;DHT22;528;47.872;11.478;2022-09-03T01:48:25;15.10;99.90
1079;DHT22;528;47.872;11.478;2022-09-03T01:51:02;15.10;99.90
1079;DHT22;528;47.872;11.478;2022-09-03T01:53:45;15.10;99.90
1079;DHT22;528;47.872;11.478;2022-09-03T01:56:30;15.10;99.90
1079;DHT22;528;47.872;11.478;2022-09-03T01:59:03;15.00;99.90
1079;DHT22;528;47.872;11.478;2022-09-03T02:01:39;15.10;99.90
1079;DHT22;528;47.872;11.478;2022-09-03T02:04:18;15.10;99.90
1079;DHT22;528;47.872;11.478;2022-09-03T02:06:48;15.10;99.90
1079;DHT22;528;47.872;11.478;2022-09-03T02:09:15;15.10;99.90
1079;DHT22;528;47.872;11.478;2022-09-03T02:11:47;15.10;99.90
1079;DHT22;528;47.872;11.478;2022-09-03T02:14:16;15.10;99.90
1079;DHT22;528;47.872;11.478;2022-09-03T02:16:46;15.10;99.90
1079;DHT22;528;47.872;11.478;2022-09-03T02:19:16;15.10;99.90
1079;DHT22;528;47.872;11.478;2022-09-03T02:21:48;15.20;99.90
1079;DHT22;528;47.872;11.478;2022-09-03T02:24:16;15.10;99.90
1079;DHT22;528;47.872;11.478;2022-09-03T02:26:44;15.20;99.90
1079;DHT22;528;47.872;11.478;2022-09-03T02:29:13;15.20;99.90
1079;DHT22;528;47.872;11.478;2022-09-03T02:31:42;15.10;99.90
1079;DHT22;528;47.872;11.478;2022-09-03T02:34:14;15.10;99.90
1079;DHT22;528;47.872;11.478;2022-09-03T02:36:45;15.10;99.90
1079;DHT22;528;47.872;11.478;2022-09-03T02:39:15;15.10;99.90
1079;DHT22;528;47.872;11.478;2022-09-03T02:41:49;15.10;99.90
1079;DHT22;528;47.872;11.478;2022-09-03T02:44:19;15.10;99.90
1079;DHT22;528;47.872;11.478;2022-09-03T02:46:53;15.10;99.90
1079;DHT22;528;47.872;11.478;2022-09-03T02:49:25;15.00;99.90
1079;DHT22;528;47.872;11.478;2022-09-03T02:51:57;15.00;99.90
1079;DHT22;528;47.872;11.478;2022-09-03T02:54:26;15.00;99.90
1079;DHT22;528;47.872;11.478;2022-09-03T02:56:54;15.00;99.90
1079;DHT22;528;47.872;11.478;2022-09-03T02:59:22;15.00;99.90
1079;DHT22;528;47.872;11.478;2022-09-03T03:01:50;14.90;99.90
1079;DHT22;528;47.872;11.478;2022-09-03T03:04:19;14.90;99.90
1079;DHT22;528;47.872;11.478;2022-09-03T03:06:48;14.90;99.90
1079;DHT22;528;47.872;11.478;2022-09-03T03:09:17;14.80;99.90
1079;DHT22;528;47.872;11.478;2022-09-03T03:11:44;14.80;99.90
1079;DHT22;528;47.872;11.478;2022-09-03T03:14:16;14.80;99.90
1079;DHT22;528;47.872;11.478;2022-09-03T03:16:45;14.80;99.90
1079;DHT22;528;47.872;11.478;2022-09-03T03:19:13;14.70;99.90
1079;DHT22;528;47.872;11.478;2022-09-03T03:21:41;14.70;99.90
1079;DHT22;528;47.872;11.478;2022-09-03T03:24:10;14.80;99.90
1079;DHT22;528;47.872;11.478;2022-09-03T03:26:38;14.70;99.90
1079;DHT22;528;47.872;11.478;2022-09-03T03:29:05;14.70;99.90
1079;DHT22;528;47.872;11.478;2022-09-03T03:31:35;14.70;99.90
1079;DHT22;528;47.872;11.478;2022-09-03T03:34:03;14.80;99.90
1079;DHT22;528;47.872;11.478;2022-09-03T03:36:32;14.70;99.90
1079;DHT22;528;47.872;11.478;2022-09-03T03:39:00;14.70;99.90
1079;DHT22;528;47.872;11.478;2022-09-03T03:41:31;14.60;99.90
1079;DHT22;528;47.872;11.478;2022-09-03T03:44:00;14.60;99.90
1079;DHT22;528;47.872;11.478;2022-09-03T03:46:33;14.60;99.90
1079;DHT22;528;47.872;11.478;2022-09-03T03:49:03;14.60;99.90
1079;DHT22;528;47.872;11.478;2022-09-03T03:51:33;14.50;99.90
1079;DHT22;528;47.872;11.478;2022-09-03T03:54:05;14.50;99.90
1079;DHT22;528;47.872;11.478;2022-09-03T03:56:34;14.40;99.90
1079;DHT22;528;47.872;11.478;2022-09-03T03:59:04;14.40;99.90
1079;DHT22;528;47.872;11.478;2022-09-03T04:01:32;14.40;99.90
1079;DHT22;528;47.872;11.478;2022-09-03T04:03:59;14.30;99.90
1079;DHT22;528;47.872;11.478;2022-09-03T04:06:27;14.20;99.90
1079;DHT22;528;47.872;11.478;2022-09-03T04:09:10;14.30;99.90
1079;DHT22;528;47.872;11.478;2022-09-03T04:11:47;14.30;99.90
1079;DHT22;528;47.872;11.478;2022-09-03T04:14:17;14.30;99.90
1079;DHT22;528;47.872;11.478;2022-09-03T04:16:52;14.30;99.90
1079;DHT22;528;47.872;11.478;2022-09-03T04:19:21;14.20;99.90
1079;DHT22;528;47.872;11.478;2022-09-03T04:21:49;14.20;99.90
1079;DHT22;528;47.872;11.478;2022-09-03T04:24:18;14.20;99.90
1079;DHT22;528;47.872;11.478;2022-09-03T04:26:48;14.20;99.90
1079;DHT22;528;47.872;11.478;2022-09-03T04:29:16;14.30;99.90
1079;DHT22;528;47.872;11.478;2022-09-03T04:31:44;14.30;99.90
1079;DHT22;528;47.872;11.478;2022-09-03T04:34:25;14.30;99.90
1079;DHT22;528;47.872;11.478;2022-09-03T04:36:52;14.30;99.90
1079;DHT22;528;47.872;11.478;2022-09-03T04:39:22;14.30;99.90
1079;DHT22;528;47.872;11.478;2022-09-03T04:41:51;14.30;99.90
1079;DHT22;528;47.872;11.478;2022-09-03T04:44:19;14.30;99.90
1079;DHT22;528;47.872;11.478;2022-09-03T04:46:46;14.30;99.90
1079;DHT22;528;47.872;11.478;2022-09-03T04:49:14;14.30;99.90
1079;DHT22;528;47.872;11.478;2022-09-03T04:51:42;14.40;99.90
1079;DHT22;528;47.872;11.478;2022-09-03T04:54:09;14.40;99.90
1079;DHT22;528;47.872;11.478;2022-09-03T04:56:38;14.50;99.90
1079;DHT22;528;47.872;11.478;2022-09-03T04:59:08;14.50;99.90
1079;DHT22;528;47.872;11.478;2022-09-03T05:01:37;14.60;99.90
1079;DHT22;528;47.872;11.478;2022-09-03T05:04:05;14.60;99.90
1079;DHT22;528;47.872;11.478;2022-09-03T05:06:35;14.60;99.90
1079;DHT22;528;47.872;11.478;2022-09-03T05:09:03;14.50;99.90
1079;DHT22;528;47.872;11.478;2022-09-03T05:11:31;14.50;99.90
1079;DHT22;528;47.872;11.478;2022-09-03T05:13:59;14.60;99.90
1079;DHT22;528;47.872;11.478;2022-09-03T05:16:29;14.60;99.90
1079;DHT22;528;47.872;11.478;2022-09-03T05:18:58;14.70;99.90
1079;DHT22;528;47.872;11.478;2022-09-03T05:21:27;14.70;99.90
1079;DHT22;528;47.872;11.478;2022-09-03T05:23:56;14.80;99.90
1079;DHT22;528;47.872;11.478;2022-09-03T05:26:25;14.80;99.90
1079;DHT22;528;47.872;11.478;2022-09-03T05:28:54;14.80;99.90
1079;DHT22;528;47.872;11.478;2022-09-03T05:31:26;14.90;99.90
1079;DHT22;528;47.872;11.478;2022-09-03T05:33:58;14.90;99.90
1079;DHT22;528;47.872;11.478;2022-09-03T05:36:28;15.00;99.90
1079;DHT22;528;47.872;11.478;2022-09-03T05:38:57;15.10;99.90
1079;DHT22;528;47.872;11.478;2022-09-03T05:41:25;15.10;99.90
1079;DHT22;528;47.872;11.478;2022-09-03T05:43:54;15.10;99.90
1079;DHT22;528;47.872;11.478;2022-09-03T05:46:25;15.10;99.90
1079;DHT22;528;47.872;11.478;2022-09-03T05:48:58;15.20;99.90
1079;DHT22;528;47.872;11.478;2022-09-03T05:51:27;15.20;99.90
1079;DHT22;528;47.872;11.478;2022-09-03T05:54:01;15.20;99.90
1079;DHT22;528;47.872;11.478;2022-09-03T05:56:30;15.30;99.90
1079;DHT22;528;47.872;11.478;2022-09-03T05:58:59;15.30;99.90
1079;DHT22;528;47.872;11.478;2022-09-03T06:01:29;15.40;99.90
1079;DHT22;528;47.872;11.478;2022-09-03T06:04:04;15.40;99.90
1079;DHT22;528;47.872;11.478;2022-09-03T06:06:39;15.50;99.90
1079;DHT22;528;47.872;11.478;2022-09-03T06:09:10;15.50;99.90
1079;DHT22;528;47.872;11.478;2022-09-03T06:11:41;15.50;99.90
1079;DHT22;528;47.872;11.478;2022-09-03T06:14:14;15.40;99.90
1079;DHT22;528;47.872;11.478;2022-09-03T06:16:44;15.40;99.90
1079;DHT22;528;47.872;11.478;2022-09-03T06:19:16;15.40;99.90
1079;DHT22;528;47.872;11.478;2022-09-03T06:21:46;15.50;99.90
1079;DHT22;528;47.872;11.478;2022-09-03T06:24:15;15.60;99.90
1079;DHT22;528;47.872;11.478;2022-09-03T06:26:43;15.60;99.90
1079;DHT22;528;47.872;11.478;2022-09-03T06:29:16;15.70;99.90
1079;DHT22;528;47.872;11.478;2022-09-03T06:31:44;15.80;99.90
1079;DHT22;528;47.872;11.478;2022-09-03T06:34:19;15.90;99.90
1079;DHT22;528;47.872;11.478;2022-09-03T06:36:50;15.90;99.90
1079;DHT22;528;47.872;11.478;2022-09-03T06:39:18;16.00;99.90
1079;DHT22;528;47.872;11.478;2022-09-03T06:41:46;16.10;99.90
1079;DHT22;528;47.872;11.478;2022-09-03T06:44:16;16.20;99.90
1079;DHT22;528;47.872;11.478;2022-09-03T06:46:44;16.30;99.90
1079;DHT22;528;47.872;11.478;2022-09-03T06:49:14;16.40;99.90
1079;DHT22;528;47.872;11.478;2022-09-03T06:51:45;16.40;99.90
1079;DHT22;528;47.872;11.478;2022-09-03T06:54:13;16.40;99.90
1079;DHT22;528;47.872;11.478;2022-09-03T06:56:41;16.60;99.90
1079;DHT22;528;47.872;11.478;2022-09-03T06:59:10;16.60;99.90
1079;DHT22;528;47.872;11.478;2022-09-03T07:01:39;16.70;99.90
1079;DHT22;528;47.872;11.478;2022-09-03T07:04:14;16.80;99.90
1079;DHT22;528;47.872;11.478;2022-09-03T07:06:48;16.90;99.90
1079;DHT22;528;47.872;11.478;2022-09-03T07:09:25;17.00;99.90
1079;DHT22;528;47.872;11.478;2022-09-03T07:12:11;17.10;99.90
1079;DHT22;528;47.872;11.478;2022-09-03T07:14:46;17.30;99.90
1079;DHT22;528;47.872;11.478;2022-09-03T07:17:16;17.40;99.90
1079;DHT22;528;47.872;11.478;2022-09-03T07:19:44;17.40;99.90
1079;DHT22;528;47.872;11.478;2022-09-03T07:22:16;17.50;99.90
1079;DHT22;528;47.872;11.478;2022-09-03T07:24:50;17.60;99.90
1079;DHT22;528;47.872;11.478;2022-09-03T07:27:18;17.60;99.90
1079;DHT22;528;47.872;11.478;2022-09-03T07:29:46;17.80;99.90
1079;DHT22;528;47.872;11.478;2022-09-03T07:32:15;17.90;99.90
1079;DHT22;528;47.872;11.478;2022-09-03T07:34:43;18.00;99.90
1079;DHT22;528;47.872;11.478;2022-09-03T07:37:10;18.00;99.90
1079;DHT22;528;47.872;11.478;2022-09-03T07:39:39;18.10;99.90
1079;DHT22;528;47.872;11.478;2022-09-03T07:42:12;18.20;99.90
1079;DHT22;528;47.872;11.478;2022-09-03T07:44:40;18.30;99.90
1079;DHT22;528;47.872;11.478;2022-09-03T07:47:07;18.40;99.90
1079;DHT22;528;47.872;11.478;2022-09-03T07:49:35;18.50;99.90
1079;DHT22;528;47.872;11.478;2022-09-03T07:52:03;18.60;99.90
1079;DHT22;528;47.872;11.478;2022-09-03T07:54:31;18.70;99.90
1079;DHT22;528;47.872;11.478;2022-09-03T07:57:02;18.80;99.90
1079;DHT22;528;47.872;11.478;2022-09-03T07:59:31;18.90;99.90
1079;DHT22;528;47.872;11.478;2022-09-03T08:01:59;19.00;99.90
1079;DHT22;528;47.872;11.478;2022-09-03T08:04:26;19.20;99.90
1079;DHT22;528;47.872;11.478;2022-09-03T08:06:55;19.30;99.90
1079;DHT22;528;47.872;11.478;2022-09-03T08:09:26;19.50;99.90
1079;DHT22;528;47.872;11.478;2022-09-03T08:11:54;19.70;99.90
1079;DHT22;528;47.872;11.478;2022-09-03T08:14:42;19.90;99.90
1079;DHT22;528;47.872;11.478;2022-09-03T08:17:12;19.90;99.90
1079;DHT22;528;47.872;11.478;2022-09-03T08:20:09;20.00;99.90
1079;DHT22;528;47.872;11.478;2022-09-03T08:22:58;20.10;99.90
1079;DHT22;528;47.872;11.478;2022-09-03T08:25:29;20.10;99.90
1079;DHT22;528;47.872;11.478;2022-09-03T08:28:01;20.10;99.90
1079;DHT22;528;47.872;11.478;2022-09-03T08:30:35;20.10;99.90
1079;DHT22;528;47.872;11.478;2022-09-03T08:33:02;20.10;99.90
1079;DHT22;528;47.872;11.478;2022-09-03T08:35:31;20.20;99.90
1079;DHT22;528;47.872;11.478;2022-09-03T08:37:59;20.20;99.90
1079;DHT22;528;47.872;11.478;2022-09-03T08:40:30;20.20;99.90
1079;DHT22;528;47.872;11.478;2022-09-03T08:43:06;20.30;99.90
1079;DHT22;528;47.872;11.478;2022-09-03T08:45:36;20.40;99.90
1079;DHT22;528;47.872;11.478;2022-09-03T08:48:09;20.60;99.90
1079;DHT22;528;47.872;11.478;2022-09-03T08:50:42;20.70;99.90
1079;DHT22;528;47.872;11.478;2022-09-03T08:53:15;20.80;99.90
1079;DHT22;528;47.872;11.478;2022-09-03T08:55:49;20.80;99.90
1079;DHT22;528;47.872;11.478;2022-09-03T08:58:19;21.00;99.90
1079;DHT22;528;47.872;11.478;2022-09-03T09:00:53;21.10;99.90
1079;DHT22;528;47.872;11.478;2022-09-03T09:03:41;21.30;99.90
1079;DHT22;528;47.872;11.478;2022-09-03T09:06:18;21.50;99.90
1079;DHT22;528;47.872;11.478;2022-09-03T09:09:01;21.70;99.90
1079;DHT22;528;47.872;11.478;2022-09-03T09:11:40;21.90;99.90
1079;DHT22;528;47.872;11.478;2022-09-03T09:14:17;22.10;99.90
1079;DHT22;528;47.872;11.478;2022-09-03T09:16:56;22.20;99.90
1079;DHT22;528;47.872;11.478;2022-09-03T09:19:48;22.30;99.90
1079;DHT22;528;47.872;11.478;2022-09-03T09:22:25;22.40;99.90
1079;DHT22;528;47.872;11.478;2022-09-03T09:24:56;22.40;99.90
1079;DHT22;528;47.872;11.478;2022-09-03T09:27:25;22.40;99.90
1079;DHT22;528;47.872;11.478;2022-09-03T09:29:58;22.40;99.90
1079;DHT22;528;47.872;11.478;2022-09-03T09:32:29;22.40;99.90
1079;DHT22;528;47.872;11.478;2022-09-03T09:34:59;22.40;99.90
1079;DHT22;528;47.872;11.478;2022-09-03T09:37:26;22.30;99.90
1079;DHT22;528;47.872;11.478;2022-09-03T09:39:55;22.30;99.90
1079;DHT22;528;47.872;11.478;2022-09-03T09:42:24;22.30;99.90
1079;DHT22;528;47.872;11.478;2022-09-03T09:44:52;22.30;99.90
1079;DHT22;528;47.872;11.478;2022-09-03T09:47:23;22.20;99.90
1079;DHT22;528;47.872;11.478;2022-09-03T09:49:55;22.10;99.90
1079;DHT22;528;47.872;11.478;2022-09-03T09:52:26;22.10;99.90
1079;DHT22;528;47.872;11.478;2022-09-03T09:55:06;22.00;99.90
1079;DHT22;528;47.872;11.478;2022-09-03T09:57:34;21.90;99.90
1079;DHT22;528;47.872;11.478;2022-09-03T10:00:06;22.00;99.90
1079;DHT22;528;47.872;11.478;2022-09-03T10:02:35;22.00;99.90
1079;DHT22;528;47.872;11.478;2022-09-03T10:05:14;22.00;99.90
1079;DHT22;528;47.872;11.478;2022-09-03T10:07:42;21.90;99.90
1079;DHT22;528;47.872;11.478;2022-09-03T10:10:24;21.90;99.90
1079;DHT22;528;47.872;11.478;2022-09-03T10:12:57;22.10;99.90
1079;DHT22;528;47.872;11.478;2022-09-03T10:15:30;22.10;99.90
1079;DHT22;528;47.872;11.478;2022-09-03T10:18:06;22.20;99.90
1079;DHT22;528;47.872;11.478;2022-09-03T10:20:41;22.30;99.90
1079;DHT22;528;47.872;11.478;2022-09-03T10:23:15;22.50;99.90
1079;DHT22;528;47.872;11.478;2022-09-03T10:28:47;22.90;99.90
1079;DHT22;528;47.872;11.478;2022-09-03T10:31:32;23.00;99.90
1079;DHT22;528;47.872;11.478;2022-09-03T10:34:11;23.10;99.90
1079;DHT22;528;47.872;11.478;2022-09-03T10:37:00;23.20;99.90
1079;DHT22;528;47.872;11.478;2022-09-03T10:39:37;23.30;99.90
1079;DHT22;528;47.872;11.478;2022-09-03T10:42:36;23.40;99.90
1079;DHT22;528;47.872;11.478;2022-09-03T10:45:18;23.40;99.70
1079;DHT22;528;47.872;11.478;2022-09-03T10:48:00;23.40;99.70
1079;DHT22;528;47.872;11.478;2022-09-03T10:50:45;23.40;99.90
1079;DHT22;528;47.872;11.478;2022-09-03T10:53:37;23.40;99.50
1079;DHT22;528;47.872;11.478;2022-09-03T10:56:12;23.40;99.80
1079;DHT22;528;47.872;11.478;2022-09-03T10:58:53;23.50;99.90
1079;DHT22;528;47.872;11.478;2022-09-03T11:01:32;23.60;99.20
1079;DHT22;528;47.872;11.478;2022-09-03T11:04:21;23.50;99.60
1079;DHT22;528;47.872;11.478;2022-09-03T11:06:53;23.50;99.90
1079;DHT22;528;47.872;11.478;2022-09-03T11:09:25;23.40;99.50
1079;DHT22;528;47.872;11.478;2022-09-03T11:12:00;23.40;99.20
1079;DHT22;528;47.872;11.478;2022-09-03T11:14:49;23.40;99.90
1079;DHT22;528;47.872;11.478;2022-09-03T11:17:35;23.40;99.90
1079;DHT22;528;47.872;11.478;2022-09-03T11:20:10;23.40;99.90
1079;DHT22;528;47.872;11.478;2022-09-03T11:22:45;23.50;99.10
1079;DHT22;528;47.872;11.478;2022-09-03T11:25:19;23.40;98.40
1079;DHT22;528;47.872;11.478;2022-09-03T11:27:55;23.40;98.30
1079;DHT22;528;47.872;11.478;2022-09-03T11:30:46;23.40;99.40
1079;DHT22;528;47.872;11.478;2022-09-03T11:33:19;23.40;99.90
1079;DHT22;528;47.872;11.478;2022-09-03T11:36:04;23.50;99.50
1079;DHT22;528;47.872;11.478;2022-09-03T11:41:26;23.50;98.60
1079;DHT22;528;47.872;11.478;2022-09-03T11:43:54;23.50;96.80
1079;DHT22;528;47.872;11.478;2022-09-03T11:46:29;23.50;97.30
1079;DHT22;528;47.872;11.478;2022-09-03T11:49:08;23.60;98.20
1079;DHT22;528;47.872;11.478;2022-09-03T11:51:37;23.70;97.70
1079;DHT22;528;47.872;11.478;2022-09-03T11:54:23;23.70;97.50
1079;DHT22;528;47.872;11.478;2022-09-03T11:57:05;23.80;98.30
1079;DHT22;528;47.872;11.478;2022-09-03T11:59:35;23.80;97.10
1079;DHT22;528;47.872;11.478;2022-09-03T12:02:08;23.90;95.60
1079;DHT22;528;47.872;11.478;2022-09-03T12:04:44;23.90;96.00
1079;DHT22;528;47.872;11.478;2022-09-03T12:07:34;23.90;95.40
1079;DHT22;528;47.872;11.478;2022-09-03T12:10:24;23.90;96.10
1079;DHT22;528;47.872;11.478;2022-09-03T12:13:12;23.80;96.80
1079;DHT22;528;47.872;11.478;2022-09-03T12:16:06;23.80;98.00
1079;DHT22;528;47.872;11.478;2022-09-03T12:18:40;23.80;97.20
1079;DHT22;528;47.872;11.478;2022-09-03T12:21:10;23.80;97.80
1079;DHT22;528;47.872;11.478;2022-09-03T12:23:42;23.90;98.60
1079;DHT22;528;47.872;11.478;2022-09-03T12:26:11;24.00;98.90
1079;DHT22;528;47.872;11.478;2022-09-03T12:28:55;24.10;99.40
1079;DHT22;528;47.872;11.478;2022-09-03T12:31:43;24.10;98.80
1079;DHT22;528;47.872;11.478;2022-09-03T12:34:16;24.20;98.50
1079;DHT22;528;47.872;11.478;2022-09-03T12:36:48;24.20;98.60
1079;DHT22;528;47.872;11.478;2022-09-03T12:39:28;24.30;98.50
1079;DHT22;528;47.872;11.478;2022-09-03T12:41:59;24.30;97.70
1079;DHT22;528;47.872;11.478;2022-09-03T12:44:32;24.30;97.30
1079;DHT22;528;47.872;11.478;2022-09-03T12:47:12;24.30;96.40
1079;DHT22;528;47.872;11.478;2022-09-03T12:49:43;24.30;98.30
1079;DHT22;528;47.872;11.478;2022-09-03T12:52:15;24.30;96.30
1079;DHT22;528;47.872;11.478;2022-09-03T12:54:49;24.20;97.00
1079;DHT22;528;47.872;11.478;2022-09-03T12:57:22;24.20;96.00
1079;DHT22;528;47.872;11.478;2022-09-03T12:59:55;24.20;96.80
1079;DHT22;528;47.872;11.478;2022-09-03T13:02:26;24.20;98.50
1079;DHT22;528;47.872;11.478;2022-09-03T13:04:57;24.20;97.90
1079;DHT22;528;47.872;11.478;2022-09-03T13:07:28;24.30;96.90
1079;DHT22;528;47.872;11.478;2022-09-03T13:10:02;24.30;97.00
1079;DHT22;528;47.872;11.478;2022-09-03T13:12:34;24.30;96.90
1079;DHT22;528;47.872;11.478;2022-09-03T13:15:22;24.30;96.30
1079;DHT22;528;47.872;11.478;2022-09-03T13:20:53;24.40;96.90
1079;DHT22;528;47.872;11.478;2022-09-03T13:23:36;24.40;96.30
1079;DHT22;528;47.872;11.478;2022-09-03T13:26:18;24.40;97.10
1079;DHT22;528;47.872;11.478;2022-09-03T13:29:03;24.40;95.70
1079;DHT22;528;47.872;11.478;2022-09-03T13:31:42;24.30;96.10
1079;DHT22;528;47.872;11.478;2022-09-03T13:34:16;24.20;96.50
1079;DHT22;528;47.872;11.478;2022-09-03T13:36:50;24.20;97.70
1079;DHT22;528;47.872;11.478;2022-09-03T13:39:24;24.10;97.30
1079;DHT22;528;47.872;11.478;2022-09-03T13:41:57;24.10;97.20
1079;DHT22;528;47.872;11.478;2022-09-03T13:44:36;24.00;96.90
1079;DHT22;528;47.872;11.478;2022-09-03T13:47:10;24.00;96.50
1079;DHT22;528;47.872;11.478;2022-09-03T13:49:42;24.00;96.30
1079;DHT22;528;47.872;11.478;2022-09-03T13:52:35;23.90;97.50
1079;DHT22;528;47.872;11.478;2022-09-03T13:55:09;23.80;98.30
1079;DHT22;528;47.872;11.478;2022-09-03T13:57:46;23.80;99.50
1079;DHT22;528;47.872;11.478;2022-09-03T14:00:23;23.70;99.60
1079;DHT22;528;47.872;11.478;2022-09-03T14:02:57;23.70;99.90
1079;DHT22;528;47.872;11.478;2022-09-03T14:05:38;23.60;99.90
1079;DHT22;528;47.872;11.478;2022-09-03T14:08:20;23.50;99.50
1079;DHT22;528;47.872;11.478;2022-09-03T14:10:58;23.30;97.40
1079;DHT22;528;47.872;11.478;2022-09-03T14:13:41;22.90;99.50
1079;DHT22;528;47.872;11.478;2022-09-03T14:16:25;22.40;99.90
1079;DHT22;528;47.872;11.478;2022-09-03T14:19:02;21.70;99.90
1079;DHT22;528;47.872;11.478;2022-09-03T14:21:37;21.00;99.90
1079;DHT22;528;47.872;11.478;2022-09-03T14:24:11;20.60;99.90
1079;DHT22;528;47.872;11.478;2022-09-03T14:26:53;20.00;99.90
1079;DHT22;528;47.872;11.478;2022-09-03T14:29:24;19.80;99.90
1079;DHT22;528;47.872;11.478;2022-09-03T14:32:16;19.50;99.90
1079;DHT22;528;47.872;11.478;2022-09-03T14:38:18;19.10;99.90
1079;DHT22;528;47.872;11.478;2022-09-03T14:41:01;19.00;99.90
1079;DHT22;528;47.872;11.478;2022-09-03T14:43:51;18.90;99.90
1079;DHT22;528;47.872;11.478;2022-09-03T14:46:36;18.90;99.90
1079;DHT22;528;47.872;11.478;2022-09-03T14:49:40;18.80;99.90
1079;DHT22;528;47.872;11.478;2022-09-03T14:52:20;18.60;99.90
1079;DHT22;528;47.872;11.478;2022-09-03T14:58:06;18.50;99.90
1079;DHT22;528;47.872;11.478;2022-09-03T15:00:44;18.40;99.90
1079;DHT22;528;47.872;11.478;2022-09-03T15:03:38;18.30;99.90
1079;DHT22;528;47.872;11.478;2022-09-03T15:06:16;18.30;99.90
1079;DHT22;528;47.872;11.478;2022-09-03T15:09:00;18.20;99.90
1079;DHT22;528;47.872;11.478;2022-09-03T15:11:34;18.10;99.90
1079;DHT22;528;47.872;11.478;2022-09-03T15:14:13;18.10;99.90
1079;DHT22;528;47.872;11.478;2022-09-03T15:16:48;18.00;99.90
1079;DHT22;528;47.872;11.478;2022-09-03T15:19:35;17.90;99.90
1079;DHT22;528;47.872;11.478;2022-09-03T15:22:12;17.80;99.90
1079;DHT22;528;47.872;11.478;2022-09-03T15:24:50;17.80;99.90
1079;DHT22;528;47.872;11.478;2022-09-03T15:27:37;17.80;99.90
1079;DHT22;528;47.872;11.478;2022-09-03T15:30:32;17.80;99.90
1079;DHT22;528;47.872;11.478;2022-09-03T15:33:10;17.70;99.90
1079;DHT22;528;47.872;11.478;2022-09-03T15:36:06;17.70;99.90
1079;DHT22;528;47.872;11.478;2022-09-03T15:39:02;17.50;99.90
1079;DHT22;528;47.872;11.478;2022-09-03T15:41:49;17.50;99.90
1079;DHT22;528;47.872;11.478;2022-09-03T15:44:18;17.50;99.90
1079;DHT22;528;47.872;11.478;2022-09-03T15:47:03;17.50;99.90
1079;DHT22;528;47.872;11.478;2022-09-03T15:49:43;17.50;99.90
1079;DHT22;528;47.872;11.478;2022-09-03T15:52:48;17.40;99.90
1079;DHT22;528;47.872;11.478;2022-09-03T15:55:25;17.40;99.90
1079;DHT22;528;47.872;11.478;2022-09-03T15:58:02;17.50;99.90
1079;DHT22;528;47.872;11.478;2022-09-03T16:00:55;17.50;99.90
1079;DHT22;528;47.872;11.478;2022-09-03T16:03:36;17.50;99.90
1079;DHT22;528;47.872;11.478;2022-09-03T16:06:19;17.50;99.90
1079;DHT22;528;47.872;11.478;2022-09-03T16:08:53;17.60;99.90
1079;DHT22;528;47.872;11.478;2022-09-03T16:11:39;17.60;99.90
1079;DHT22;528;47.872;11.478;2022-09-03T16:14:26;17.70;99.90
1079;DHT22;528;47.872;11.478;2022-09-03T16:17:00;17.80;99.90
1079;DHT22;528;47.872;11.478;2022-09-03T16:19:36;17.80;99.90
1079;DHT22;528;47.872;11.478;2022-09-03T16:22:14;17.80;99.90
1079;DHT22;528;47.872;11.478;2022-09-03T16:25:02;17.80;99.90
1079;DHT22;528;47.872;11.478;2022-09-03T16:27:39;17.80;99.90
1079;DHT22;528;47.872;11.478;2022-09-03T16:30:21;17.90;99.90
1079;DHT22;528;47.872;11.478;2022-09-03T16:33:01;17.80;99.90
1079;DHT22;528;47.872;11.478;2022-09-03T16:35:43;17.80;99.90
1079;DHT22;528;47.872;11.478;2022-09-03T16:41:35;17.80;99.90
1079;DHT22;528;47.872;11.478;2022-09-03T16:44:45;17.80;99.90
1079;DHT22;528;47.872;11.478;2022-09-03T16:53:50;17.90;99.90
1079;DHT22;528;47.872;11.478;2022-09-03T16:56:58;17.90;99.90
1079;DHT22;528;47.872;11.478;2022-09-03T16:59:59;17.90;99.90
1079;DHT22;528;47.872;11.478;2022-09-03T17:19:13;17.80;99.90
1079;DHT22;528;47.872;11.478;2022-09-03T17:21:49;17.80;99.90
1079;DHT22;528;47.872;11.478;2022-09-03T17:24:36;17.80;99.90
1079;DHT22;528;47.872;11.478;2022-09-03T17:27:24;17.80;99.90
1079;DHT22;528;47.872;11.478;2022-09-03T17:30:05;17.80;99.90
1079;DHT22;528;47.872;11.478;2022-09-03T17:35:38;17.80;99.90
1079;DHT22;528;47.872;11.478;2022-09-03T17:38:18;17.80;99.90
1079;DHT22;528;47.872;11.478;2022-09-03T17:41:00;17.80;99.90